Time;durP1;ratioP1;P1;durP2;ratioP2;P2;SDS_P1;SDS_P2;PMS_P1;PMS_P2;Temp;Humidity;BMP_temperature;BMP_pressure;BME280_temperature;BME280_humidity;BME280_pressure;Samples;Min_cycle;Max_cycle;Signal;HPM_P1;HPM_P2
2022/11/07 00:00:49;;;;;;;5.10;2.47;;;;;;;9.96;61.96;99530.34;10272162;28;20419;-65
2022/11/07 00:05:53;;;;;;;4.90;2.10;;;;;;;10.03;62.24;99529.03;10286534;28;20062;-63
2022/11/07 00:10:55;;;;;;;5.28;2.38;;;;;;;10.02;62.36;99525.59;10279659;28;20454;-63
2022/11/07 00:16:02;;;;;;;6.30;2.38;;;;;;;9.94;62.56;99524.38;10270934;28;20051;-63
2022/11/07 00:21:05;;;;;;;6.50;2.22;;;;;;;10.06;62.56;99515.78;10270870;28;20047;-63
2022/11/07 00:26:09;;;;;;;7.10;2.33;;;;;;;10.12;62.64;99526.69;10278790;28;20522;-63
2022/11/07 00:31:13;;;;;;;5.15;2.10;;;;;;;10.04;63.18;99539.41;10299508;28;20054;-63
2022/11/07 00:36:20;;;;;;;4.10;2.15;;;;;;;10.00;63.33;99537.06;10271890;28;20050;-64
2022/11/07 00:41:22;;;;;;;4.93;2.20;;;;;;;9.97;63.53;99535.47;10271461;28;20407;-64
2022/11/07 00:46:24;;;;;;;8.73;2.40;;;;;;;10.00;63.79;99542.28;10267943;28;20051;-63
2022/11/07 00:51:27;;;;;;;4.38;2.10;;;;;;;9.98;63.88;99542.41;10283011;28;20063;-63
2022/11/07 00:56:29;;;;;;;4.82;2.03;;;;;;;10.03;63.92;99547.34;10283109;28;20051;-64
2022/11/07 01:01:32;;;;;;;4.43;2.10;;;;;;;10.13;63.78;99554.50;10281294;28;20073;-63
2022/11/07 01:06:37;;;;;;;5.90;2.35;;;;;;;10.09;64.03;99568.69;10275914;28;20061;-64
2022/11/07 01:11:40;;;;;;;5.38;2.40;;;;;;;10.04;64.81;99569.91;10292005;28;20051;-63
2022/11/07 01:16:42;;;;;;;4.15;1.95;;;;;;;10.03;64.71;99576.91;10279618;28;20057;-63
2022/11/07 01:21:44;;;;;;;7.07;2.33;;;;;;;10.16;64.44;99558.66;10278883;28;20053;-63
2022/11/07 01:26:50;;;;;;;5.88;2.38;;;;;;;9.95;64.52;99560.84;10288495;28;20059;-63
2022/11/07 01:31:52;;;;;;;3.97;2.22;;;;;;;9.67;65.05;99553.06;10269071;28;20057;-63
2022/11/07 01:36:53;;;;;;;4.35;2.40;;;;;;;9.44;65.70;99549.22;10291376;28;20042;-63
2022/11/07 01:41:55;;;;;;;9.27;2.30;;;;;;;9.28;65.62;99563.31;10271707;28;20403;-63
2022/11/07 01:46:59;;;;;;;8.93;2.20;;;;;;;9.36;66.16;99561.09;10267754;28;20294;-63
2022/11/07 01:52:08;;;;;;;5.68;2.28;;;;;;;9.54;66.14;99558.19;10278636;28;20050;-62
2022/11/07 01:57:14;;;;;;;8.23;2.53;;;;;;;9.69;65.86;99560.84;10274179;28;20047;-63
2022/11/07 02:02:16;;;;;;;7.43;2.50;;;;;;;9.77;65.66;99562.00;10272543;28;20066;-63
2022/11/07 02:07:20;;;;;;;9.15;2.38;;;;;;;9.78;65.52;99548.03;10269105;28;20652;-64
2022/11/07 02:12:24;;;;;;;6.13;2.42;;;;;;;9.63;65.66;99536.75;10266366;28;20494;-64
2022/11/07 02:17:26;;;;;;;6.93;2.60;;;;;;;9.45;65.88;99543.09;10275004;28;20058;-63
2022/11/07 02:22:48;;;;;;;7.20;2.63;;;;;;;9.34;66.38;99542.91;10275293;28;20074;-64
2022/11/07 02:27:57;;;;;;;6.07;2.72;;;;;;;9.37;66.73;99547.09;10292471;28;20490;-64
2022/11/07 02:33:00;;;;;;;11.00;2.63;;;;;;;9.58;66.20;99556.25;10275877;28;20046;-63
2022/11/07 02:38:10;;;;;;;8.85;2.78;;;;;;;9.74;66.06;99553.53;10272187;28;20157;-63
2022/11/07 02:43:14;;;;;;;8.90;2.60;;;;;;;9.90;65.82;99547.25;10278217;28;20397;-64
2022/11/07 02:48:16;;;;;;;7.70;2.60;;;;;;;9.98;65.54;99555.47;10261409;28;20059;-63
2022/11/07 02:53:18;;;;;;;4.25;2.30;;;;;;;10.01;65.66;99557.03;10274043;28;20058;-64
2022/11/07 02:58:20;;;;;;;5.55;2.35;;;;;;;10.06;65.81;99558.41;10266132;28;20238;-64
2022/11/07 03:03:22;;;;;;;8.50;2.40;;;;;;;10.15;65.52;99564.84;10266770;28;20046;-64
2022/11/07 03:08:24;;;;;;;6.88;2.30;;;;;;;10.19;65.07;99561.94;10270890;28;20743;-64
2022/11/07 03:13:25;;;;;;;9.45;2.60;;;;;;;10.20;64.91;99555.75;10289769;28;20058;-63
2022/11/07 03:18:27;;;;;;;6.13;2.40;;;;;;;10.21;65.00;99556.63;10285812;28;20539;-64
2022/11/07 03:23:29;;;;;;;5.88;2.40;;;;;;;10.21;65.06;99554.84;10273921;28;20317;-64
2022/11/07 03:28:31;;;;;;;7.03;2.55;;;;;;;10.22;65.08;99546.06;10296101;28;20051;-63
2022/11/07 03:33:33;;;;;;;8.45;2.92;;;;;;;10.29;64.99;99562.19;10274790;28;20054;-64
2022/11/07 03:38:35;;;;;;;7.43;2.80;;;;;;;10.35;64.86;99551.34;10276546;28;20419;-64
2022/11/07 03:43:36;;;;;;;9.85;2.78;;;;;;;10.32;65.01;99551.50;10270709;28;20061;-63
2022/11/07 03:48:38;;;;;;;5.97;3.00;;;;;;;10.30;65.23;99545.53;10286247;28;20601;-62
2022/11/07 03:53:40;;;;;;;7.93;2.90;;;;;;;10.22;65.05;99545.19;10267498;28;20388;-63
2022/11/07 03:58:41;;;;;;;8.23;3.08;;;;;;;10.10;65.28;99543.38;10282580;28;20663;-63
2022/11/07 04:03:43;;;;;;;10.00;2.97;;;;;;;9.90;65.83;99557.72;10263764;28;20411;-63
2022/11/07 04:08:45;;;;;;;10.63;3.17;;;;;;;9.85;65.74;99561.56;10262557;28;20637;-63
2022/11/07 04:19:07;;;;;;;12.50;3.30;;;;;;;9.63;65.95;99562.84;10269204;28;20035;-63
2022/11/07 04:24:09;;;;;;;7.00;3.20;;;;;;;9.51;66.23;99560.16;10263415;28;20482;-63
2022/11/07 04:29:10;;;;;;;8.32;3.22;;;;;;;9.35;66.65;99556.78;10269217;28;20050;-63
2022/11/07 04:34:12;;;;;;;7.85;3.60;;;;;;;9.14;66.91;99551.09;10279867;28;20059;-63
2022/11/07 04:39:13;;;;;;;10.50;3.42;;;;;;;8.94;67.54;99553.19;10291454;28;20053;-63
2022/11/07 04:44:15;;;;;;;7.50;3.30;;;;;;;8.90;67.96;99560.38;10295308;28;20056;-62
2022/11/07 04:49:17;;;;;;;9.77;3.88;;;;;;;8.89;67.93;99561.31;10283739;28;20051;-63
2022/11/07 04:54:19;;;;;;;12.55;4.50;;;;;;;8.77;68.41;99562.84;10272623;28;20054;-63
2022/11/07 04:59:20;;;;;;;9.13;4.18;;;;;;;8.74;68.41;99567.41;10287995;28;20754;-64
2022/11/07 05:04:22;;;;;;;8.45;4.60;;;;;;;8.74;68.14;99577.84;10274421;28;20053;-64
2022/11/07 05:09:24;;;;;;;9.48;4.00;;;;;;;8.69;68.42;99577.25;10270658;28;20055;-64
2022/11/07 05:14:25;;;;;;;10.38;4.50;;;;;;;8.63;68.55;99580.22;10288364;28;20058;-64
2022/11/07 05:19:27;;;;;;;11.95;4.50;;;;;;;8.53;68.63;99586.88;10285566;28;20527;-64
2022/11/07 05:24:29;;;;;;;11.98;4.45;;;;;;;8.38;69.30;99592.97;10269708;28;20133;-63
2022/11/07 05:29:31;;;;;;;12.48;5.05;;;;;;;8.36;69.34;99598.28;10272402;28;20518;-64
2022/11/07 05:34:32;;;;;;;7.68;3.72;;;;;;;8.31;68.92;99597.69;10282515;28;20062;-63
2022/11/07 05:39:35;;;;;;;12.73;5.22;;;;;;;8.22;69.11;99605.19;10278093;28;20400;-64
2022/11/07 05:44:36;;;;;;;9.88;4.75;;;;;;;8.09;69.54;99599.75;10302669;28;20507;-63
2022/11/07 05:49:38;;;;;;;11.07;5.30;;;;;;;8.13;69.12;99600.47;10302069;28;20046;-63
2022/11/07 05:54:40;;;;;;;11.32;4.78;;;;;;;8.16;69.00;99595.09;10279845;28;20050;-64
2022/11/07 05:59:41;;;;;;;9.00;4.63;;;;;;;8.19;69.14;99598.38;10273673;28;20089;-64
2022/11/07 06:04:43;;;;;;;10.80;5.97;;;;;;;8.24;69.20;99608.53;10267096;28;20436;-64
2022/11/07 06:09:45;;;;;;;10.80;6.00;;;;;;;8.40;69.20;99601.53;10278209;28;20226;-64
2022/11/07 06:14:46;;;;;;;10.82;5.80;;;;;;;8.58;69.09;99590.06;10266118;28;20054;-64
2022/11/07 06:19:48;;;;;;;11.68;5.53;;;;;;;8.66;69.02;99614.78;10290507;28;20057;-64
2022/11/07 06:24:50;;;;;;;10.10;5.40;;;;;;;8.70;68.69;99611.06;10267258;28;20530;-63
2022/11/07 06:29:52;;;;;;;9.38;4.95;;;;;;;8.62;68.92;99615.88;10274830;28;20046;-64
2022/11/07 06:34:53;;;;;;;9.82;4.32;;;;;;;8.62;69.13;99620.25;10266756;28;20050;-64
2022/11/07 06:39:55;;;;;;;9.82;4.28;;;;;;;8.69;69.13;99627.63;10300483;28;20050;-63
2022/11/07 06:44:57;;;;;;;9.18;4.13;;;;;;;8.86;68.83;99629.28;10270239;28;20050;-63
2022/11/07 06:49:58;;;;;;;10.90;4.10;;;;;;;8.91;68.83;99629.88;10265282;28;20061;-64
2022/11/07 06:55:00;;;;;;;10.10;4.47;;;;;;;8.89;68.80;99623.06;10275555;28;20055;-63
2022/11/07 07:00:04;;;;;;;12.85;5.65;;;;;;;8.88;68.76;99637.84;10280580;28;20043;-63
2022/11/07 07:05:07;;;;;;;9.55;3.92;;;;;;;8.79;69.18;99648.84;10296625;28;20051;-63
2022/11/07 07:10:08;;;;;;;9.88;3.65;;;;;;;9.11;68.81;99639.97;10284448;28;21079;-63
2022/11/07 07:15:10;;;;;;;10.35;3.53;;;;;;;9.40;68.35;99641.69;10274221;28;20058;-64
2022/11/07 07:20:12;;;;;;;11.35;4.07;;;;;;;9.58;68.35;99650.22;10264104;28;20050;-64
2022/11/07 07:25:14;;;;;;;13.20;3.50;;;;;;;9.80;67.96;99640.19;10285906;28;20491;-64
2022/11/07 07:30:15;;;;;;;9.88;3.00;;;;;;;9.96;67.77;99642.69;10279167;28;20051;-64
2022/11/07 07:35:17;;;;;;;12.20;2.55;;;;;;;10.23;67.12;99646.22;10275404;28;20077;-64
2022/11/07 07:40:19;;;;;;;8.55;2.50;;;;;;;10.46;66.71;99650.84;10273026;28;20046;-64
2022/11/07 07:45:21;;;;;;;11.23;2.22;;;;;;;10.55;66.37;99650.22;10264467;28;20125;-64
2022/11/07 07:50:23;;;;;;;9.48;2.35;;;;;;;10.74;65.92;99655.97;10289858;28;20043;-64
2022/11/07 07:55:24;;;;;;;8.98;1.90;;;;;;;10.87;65.53;99651.59;10282883;28;20066;-64
2022/11/07 08:00:26;;;;;;;8.63;2.08;;;;;;;11.02;65.07;99666.31;10266882;28;20053;-64
2022/11/07 08:05:28;;;;;;;8.63;2.28;;;;;;;11.18;64.74;99656.53;10265222;28;20054;-64
2022/11/07 08:10:30;;;;;;;10.57;2.20;;;;;;;11.19;64.35;99663.44;10269720;28;20042;-65
2022/11/07 08:15:47;;;;;;;12.98;2.20;;;;;;;11.50;64.10;99661.41;10285354;28;20046;-64
2022/11/07 08:20:51;;;;;;;10.32;2.28;;;;;;;11.64;63.50;99656.88;10304872;28;20065;-64
2022/11/07 08:25:55;;;;;;;8.48;2.03;;;;;;;11.90;62.83;99665.56;10275313;28;20054;-64
2022/11/07 08:31:06;;;;;;;10.07;2.50;;;;;;;11.99;61.61;99665.75;10283489;28;20047;-64
2022/11/07 08:36:08;;;;;;;7.45;2.30;;;;;;;12.30;61.37;99668.88;10276279;28;20489;-65
2022/11/07 08:41:10;;;;;;;13.40;3.00;;;;;;;12.42;61.14;99675.88;10268930;28;20050;-65
2022/11/07 08:46:12;;;;;;;12.02;2.20;;;;;;;12.61;60.70;99677.09;10269891;28;20450;-65
2022/11/07 08:51:13;;;;;;;7.95;2.70;;;;;;;12.61;60.67;99684.13;10269944;28;20057;-65
2022/11/07 08:56:15;;;;;;;10.10;3.03;;;;;;;12.49;60.50;99679.75;10269211;28;20411;-64
2022/11/07 09:01:17;;;;;;;10.35;3.53;;;;;;;12.45;60.73;99686.16;10278280;28;20298;-64
2022/11/07 09:06:18;;;;;;;9.73;3.28;;;;;;;12.42;60.42;99684.59;10270620;28;20055;-65
2022/11/07 09:11:20;;;;;;;11.23;2.80;;;;;;;12.31;60.60;99692.41;10287471;28;20084;-64
2022/11/07 09:16:23;;;;;;;10.50;4.18;;;;;;;12.35;60.74;99698.25;10299174;28;20078;-65
2022/11/07 09:21:24;;;;;;;11.10;3.17;;;;;;;12.38;60.70;99703.28;10278428;28;20053;-64
2022/11/07 09:26:26;;;;;;;12.63;3.05;;;;;;;12.36;60.55;99706.00;10272201;28;20752;-64
2022/11/07 09:31:28;;;;;;;10.10;3.55;;;;;;;12.38;60.83;99704.13;10264329;28;20074;-64
2022/11/07 09:36:29;;;;;;;8.43;2.55;;;;;;;12.37;60.66;99694.59;10283277;28;20302;-65
2022/11/07 09:41:49;;;;;;;10.13;2.42;;;;;;;12.26;60.36;99697.09;10271267;28;20419;-65
2022/11/07 09:47:13;;;;;;;11.03;3.87;;;;;;;12.22;61.06;99708.72;10265526;28;20047;-64
2022/11/07 09:52:30;;;;;;;15.18;5.28;;;;;;;12.49;60.69;99703.38;10281225;28;20058;-64
2022/11/07 09:57:34;;;;;;;13.70;3.08;;;;;;;12.54;60.75;99699.44;10265484;28;20061;-64
2022/11/07 10:02:42;;;;;;;13.43;2.80;;;;;;;12.62;60.40;99706.81;10284913;28;20230;-65
2022/11/07 10:07:59;;;;;;;13.25;3.40;;;;;;;12.60;60.60;99713.94;10264571;28;20141;-65
2022/11/07 10:13:13;;;;;;;7.97;2.47;;;;;;;12.52;60.77;99721.50;10287370;28;20094;-65
2022/11/07 10:18:53;;;;;;;11.20;2.90;;;;;;;12.75;60.37;99726.78;10272474;28;20046;-65
2022/11/07 10:24:11;;;;;;;9.70;2.80;;;;;;;13.00;60.03;99728.47;10283098;28;20578;-65
2022/11/07 10:29:20;;;;;;;8.45;2.45;;;;;;;13.35;59.15;99718.00;10264487;28;20342;-65
2022/11/07 10:34:39;;;;;;;8.38;2.55;;;;;;;13.48;58.87;99729.28;10266688;28;20054;-65
2022/11/07 10:39:41;;;;;;;7.35;2.20;;;;;;;13.61;58.56;99716.91;10270311;28;20390;-65
2022/11/07 10:44:44;;;;;;;8.30;2.47;;;;;;;13.59;58.78;99732.81;10269222;28;20415;-65
2022/11/07 10:50:18;;;;;;;7.57;2.50;;;;;;;13.30;58.20;99733.25;10271388;28;20050;-65
2022/11/07 10:55:21;;;;;;;12.48;4.30;;;;;;;13.36;59.15;99741.53;10264973;28;20302;-65
2022/11/07 11:00:35;;;;;;;11.43;3.53;;;;;;;13.28;59.41;99741.25;10269865;28;20046;-65
2022/11/07 11:05:47;;;;;;;10.05;2.92;;;;;;;13.34;59.14;99743.44;10267111;28;20082;-65
2022/11/07 11:10:49;;;;;;;9.45;2.53;;;;;;;13.24;59.21;99733.72;10279018;28;20503;-63
2022/11/07 11:15:51;;;;;;;9.43;2.85;;;;;;;13.41;59.26;99722.81;10262288;28;20078;-64
2022/11/07 11:21:00;;;;;;;9.32;2.70;;;;;;;13.41;58.85;99721.00;10273496;28;20054;-64
2022/11/07 11:26:21;;;;;;;8.77;2.63;;;;;;;13.66;58.35;99704.25;10280530;28;20058;-64
2022/11/07 11:31:28;;;;;;;;;;;;;;;13.58;57.86;99704.00;10264503;28;20054;-63
2022/11/07 11:36:37;;;;;;;12.18;3.20;;;;;;;14.16;57.49;99695.13;10281296;28;20215;-63
2022/11/07 11:41:59;;;;;;;8.05;3.13;;;;;;;14.24;56.61;99684.84;10279242;28;20411;-63
2022/11/07 11:47:13;;;;;;;16.30;4.75;;;;;;;14.26;56.41;99689.03;10274191;28;20057;-63
2022/11/07 11:52:21;;;;;;;17.50;6.13;;;;;;;14.13;56.49;99690.09;10270480;28;20050;-63
2022/11/07 11:57:36;;;;;;;20.17;8.38;;;;;;;14.07;56.65;99685.31;10269203;28;20057;-63
2022/11/07 12:02:59;;;;;;;10.23;2.85;;;;;;;14.16;56.69;99685.44;10271689;28;20050;-63
2022/11/07 12:08:29;;;;;;;8.27;2.45;;;;;;;14.04;56.34;99690.81;10269581;28;20649;-63
2022/11/07 12:13:52;;;;;;;6.28;2.00;;;;;;;13.89;56.84;99699.88;10276669;28;20682;-63
2022/11/07 12:19:21;;;;;;;11.48;2.28;;;;;;;13.71;57.38;99696.88;10275815;28;20480;-63
2022/11/07 12:24:26;;;;;;;9.57;2.78;;;;;;;13.84;57.70;99684.44;10280269;28;20059;-63
2022/11/07 12:30:03;;;;;;;9.52;2.60;;;;;;;13.95;56.56;99681.00;10274147;28;20061;-63
2022/11/07 12:35:23;;;;;;;10.30;2.45;;;;;;;14.29;56.24;99672.97;10268439;28;20487;-62
2022/11/07 12:40:51;;;;;;;10.25;3.60;;;;;;;14.62;55.97;99672.13;10298836;28;20058;-63
2022/11/07 12:46:16;;;;;;;12.75;3.40;;;;;;;14.64;55.74;99685.16;10274894;28;20061;-63
2022/11/07 12:51:42;;;;;;;8.60;2.58;;;;;;;14.40;55.93;99682.66;10282018;28;20483;-63
2022/11/07 12:56:46;;;;;;;7.45;2.05;;;;;;;14.22;56.52;99679.69;10282703;28;20065;-63
2022/11/07 13:02:07;;;;;;;8.45;2.25;;;;;;;14.20;56.63;99683.41;10268853;28;20051;-63
2022/11/07 13:07:27;;;;;;;8.10;2.30;;;;;;;14.03;56.80;99675.97;10273455;28;20396;-63
2022/11/07 13:12:31;;;;;;;9.20;2.65;;;;;;;14.27;56.73;99672.25;10268443;28;20054;-62
2022/11/07 13:17:44;;;;;;;7.30;2.47;;;;;;;14.43;56.23;99666.66;10276802;28;20051;-63
2022/11/07 13:22:50;;;;;;;12.77;4.25;;;;;;;14.39;56.84;99671.28;10281812;28;20321;-63
2022/11/07 13:27:52;;;;;;;9.20;3.00;;;;;;;14.25;57.69;99674.19;10271423;28;20539;-62
2022/11/07 13:32:54;;;;;;;10.73;2.78;;;;;;;13.98;59.00;99684.25;10282052;28;20054;-63
2022/11/07 13:38:12;;;;;;;11.18;3.35;;;;;;;13.84;59.77;99684.44;10263908;28;20161;-63
2022/11/07 13:43:21;;;;;;;12.60;2.80;;;;;;;13.63;60.19;99691.38;10269004;28;20482;-63
2022/11/07 13:48:34;;;;;;;8.77;3.72;;;;;;;13.37;61.14;99700.34;10281549;28;20060;-63
2022/11/07 13:54:04;;;;;;;11.30;3.30;;;;;;;13.28;62.14;99693.13;10282229;28;20054;-63
2022/11/07 13:59:12;;;;;;;11.65;4.93;;;;;;;13.57;61.43;99697.09;10271914;28;20091;-64
2022/11/07 14:04:16;;;;;;;12.98;3.70;;;;;;;13.72;61.13;99696.75;10284899;28;20422;-64
2022/11/07 14:09:20;;;;;;;9.88;2.83;;;;;;;13.69;60.69;99683.84;10280304;28;20050;-64
2022/11/07 14:14:24;;;;;;;13.27;3.50;;;;;;;13.71;60.51;99689.84;10274978;28;20061;-63
2022/11/07 14:19:26;;;;;;;13.75;6.20;;;;;;;13.68;60.94;99691.84;10306203;28;20531;-64
2022/11/07 14:24:32;;;;;;;11.88;4.07;;;;;;;13.57;60.95;99695.31;10279454;28;20058;-63
2022/11/07 14:29:34;;;;;;;10.23;3.70;;;;;;;13.59;60.85;99698.66;10295982;28;20663;-64
2022/11/07 14:34:43;;;;;;;9.75;2.88;;;;;;;13.63;60.38;99707.13;10282909;28;20061;-63
2022/11/07 14:39:45;;;;;;;8.55;2.67;;;;;;;13.55;60.68;99699.00;10303882;28;20439;-63
2022/11/07 14:44:50;;;;;;;8.43;2.58;;;;;;;13.59;60.46;99696.03;10273628;28;20427;-63
2022/11/07 14:49:58;;;;;;;11.35;2.70;;;;;;;13.53;60.11;99695.66;10263975;28;20510;-64
2022/11/07 14:55:25;;;;;;;11.07;2.92;;;;;;;13.50;60.28;99693.22;10283259;28;20062;-63
2022/11/07 15:00:28;;;;;;;11.35;2.80;;;;;;;13.43;60.43;99692.03;10276955;28;20514;-63
2022/11/07 15:05:43;;;;;;;10.52;2.95;;;;;;;13.28;60.66;99701.88;10304060;28;20053;-63
2022/11/07 15:10:44;;;;;;;12.00;2.70;;;;;;;13.15;61.04;99702.91;10289974;28;20104;-63
2022/11/07 15:15:59;;;;;;;11.98;2.70;;;;;;;13.11;61.14;99701.44;10268290;28;20061;-63
2022/11/07 15:21:01;;;;;;;12.65;2.88;;;;;;;13.17;60.98;99701.00;10296433;28;20051;-64
2022/11/07 15:26:06;;;;;;;9.75;2.10;;;;;;;13.12;60.73;99696.06;10263851;28;20058;-63
2022/11/07 15:31:26;;;;;;;9.98;2.40;;;;;;;13.04;61.14;99705.47;10270027;28;20302;-63
2022/11/07 15:36:28;;;;;;;11.02;2.35;;;;;;;13.06;61.29;99695.69;10262735;28;20061;-62
2022/11/07 15:41:30;;;;;;;8.52;2.25;;;;;;;12.98;61.05;99691.81;10282001;28;20051;-63
2022/11/07 15:46:34;;;;;;;9.07;2.38;;;;;;;12.94;61.13;99702.69;10292440;28;20384;-63
2022/11/07 15:51:36;;;;;;;12.57;2.35;;;;;;;12.76;61.70;99704.84;10263738;28;20058;-62
2022/11/07 15:56:39;;;;;;;9.70;2.38;;;;;;;12.76;61.75;99698.78;10263744;28;20047;-63
2022/11/07 16:01:41;;;;;;;12.40;3.95;;;;;;;12.78;61.90;99705.56;10268153;28;20058;-63
2022/11/07 16:06:43;;;;;;;13.13;3.78;;;;;;;12.89;61.53;99715.28;10263753;28;20055;-63
2022/11/07 16:11:47;;;;;;;12.98;5.32;;;;;;;12.93;61.50;99712.34;10283432;28;20076;-63
2022/11/07 16:16:49;;;;;;;14.40;4.00;;;;;;;12.92;61.52;99705.41;10264556;28;20521;-63
2022/11/07 16:21:51;;;;;;;12.35;3.67;;;;;;;12.87;61.61;99697.03;10267430;28;20407;-63
2022/11/07 16:26:52;;;;;;;12.25;3.10;;;;;;;12.81;61.57;99713.22;10282399;28;20479;-63
2022/11/07 16:31:54;;;;;;;15.20;2.75;;;;;;;12.78;61.72;99716.06;10270152;28;20051;-62
2022/11/07 16:36:56;;;;;;;9.38;3.47;;;;;;;12.78;62.12;99710.00;10272032;28;20078;-63
2022/11/07 16:41:57;;;;;;;7.95;2.70;;;;;;;12.86;62.02;99718.97;10271480;28;20055;-63
2022/11/07 16:46:59;;;;;;;7.53;2.60;;;;;;;12.82;61.92;99714.88;10295232;28;20415;-63
2022/11/07 16:52:02;;;;;;;10.38;3.00;;;;;;;12.95;61.70;99701.72;10284062;28;20055;-63
2022/11/07 16:57:03;;;;;;;12.50;2.90;;;;;;;12.82;61.94;99704.38;10276571;28;20447;-64
2022/11/07 17:02:24;;;;;;;12.13;4.28;;;;;;;12.67;61.87;99705.50;10269517;28;20504;-64
2022/11/07 17:07:26;;;;;;;;;;;;;;;12.35;62.83;99714.84;10267108;28;20139;-64
2022/11/07 17:12:28;;;;;;;12.50;4.85;;;;;;;12.55;62.39;99723.91;10285503;28;19922;-64
2022/11/07 17:17:29;;;;;;;13.15;4.30;;;;;;;12.52;62.45;99714.47;10280322;28;20054;-64
2022/11/07 17:22:31;;;;;;;14.55;4.10;;;;;;;12.47;62.62;99727.09;10287333;28;20062;-64
2022/11/07 17:27:34;;;;;;;10.88;2.90;;;;;;;12.43;62.71;99737.88;10299349;28;20050;-64
2022/11/07 17:32:36;;;;;;;8.57;2.55;;;;;;;12.38;62.79;99725.09;10271093;28;20057;-64
2022/11/07 17:37:38;;;;;;;11.13;3.08;;;;;;;12.38;63.01;99735.59;10282761;28;20643;-64
2022/11/07 17:42:40;;;;;;;11.43;2.60;;;;;;;12.32;63.02;99733.41;10273959;28;20061;-65
2022/11/07 17:47:42;;;;;;;9.35;2.47;;;;;;;12.26;63.22;99740.81;10280546;28;20053;-64
2022/11/07 17:52:44;;;;;;;13.07;5.35;;;;;;;12.20;63.21;99756.97;10280102;28;20051;-64
2022/11/07 17:57:46;;;;;;;8.85;3.05;;;;;;;12.13;63.24;99752.16;10293475;28;20145;-64
2022/11/07 18:02:49;;;;;;;9.00;3.05;;;;;;;12.06;63.45;99765.78;10295051;28;20053;-64
2022/11/07 18:07:52;;;;;;;12.15;3.20;;;;;;;11.96;63.79;99749.00;10287895;28;20231;-64
2022/11/07 18:12:55;;;;;;;11.40;3.08;;;;;;;11.95;63.83;99750.78;10275332;28;20050;-64
2022/11/07 18:17:57;;;;;;;8.98;2.65;;;;;;;11.82;63.96;99751.72;10278583;28;20368;-64
2022/11/07 18:22:59;;;;;;;9.57;2.70;;;;;;;11.74;64.22;99752.25;10281548;28;20050;-64
2022/11/07 18:28:00;;;;;;;10.65;3.38;;;;;;;11.65;64.24;99750.25;10275457;28;20053;-64
2022/11/07 18:33:02;;;;;;;10.52;3.30;;;;;;;11.46;64.52;99754.19;10285242;28;20556;-64
2022/11/07 18:38:04;;;;;;;11.48;3.53;;;;;;;11.25;65.11;99751.22;10275827;28;20046;-64
2022/11/07 18:43:07;;;;;;;12.02;3.53;;;;;;;11.10;65.54;99754.81;10278267;28;20066;-64
2022/11/07 18:48:12;;;;;;;17.45;6.72;;;;;;;10.92;65.96;99759.44;10293975;28;20058;-63
2022/11/07 18:53:15;;;;;;;24.13;9.00;;;;;;;10.84;66.09;99751.22;10269434;28;20047;-64
2022/11/07 18:58:17;;;;;;;21.17;8.20;;;;;;;10.72;66.62;99745.94;10302798;28;20038;-64
2022/11/07 19:03:22;;;;;;;18.88;7.00;;;;;;;10.67;66.52;99746.22;10275959;28;20094;-64
2022/11/07 19:08:23;;;;;;;13.95;5.10;;;;;;;10.66;66.51;99749.78;10285308;28;20046;-64
2022/11/07 19:13:26;;;;;;;12.77;4.65;;;;;;;10.53;66.77;99746.22;10283755;28;20058;-64
2022/11/07 19:18:28;;;;;;;12.02;4.68;;;;;;;10.45;66.99;99769.41;10280482;28;20191;-64
2022/11/07 19:23:30;;;;;;;20.75;7.55;;;;;;;10.41;67.21;99765.28;10279744;28;20054;-64
2022/11/07 19:28:34;;;;;;;13.70;5.03;;;;;;;10.39;67.37;99769.78;10275499;28;20050;-64
2022/11/07 19:33:36;;;;;;;20.00;9.55;;;;;;;10.29;67.48;99763.44;10273027;28;20065;-64
2022/11/07 19:38:38;;;;;;;21.90;9.65;;;;;;;10.21;67.83;99757.84;10273410;28;20050;-64
2022/11/07 19:43:41;;;;;;;16.30;7.70;;;;;;;10.20;67.85;99758.75;10273533;28;20069;-64
2022/11/07 19:48:43;;;;;;;15.57;6.63;;;;;;;9.99;67.92;99754.84;10270739;28;20094;-64
2022/11/07 19:53:44;;;;;;;18.92;8.80;;;;;;;9.75;68.42;99767.56;10270994;28;20924;-62
2022/11/07 19:58:48;;;;;;;22.27;10.82;;;;;;;9.61;69.40;99765.75;10295090;28;20280;-63
2022/11/07 20:03:51;;;;;;;22.63;8.20;;;;;;;9.61;69.74;99768.38;10290622;28;20050;-62
2022/11/07 20:08:53;;;;;;;17.63;8.88;;;;;;;9.72;69.25;99773.00;10285877;28;20046;-62
2022/11/07 20:13:55;;;;;;;21.33;10.90;;;;;;;9.64;69.29;99776.03;10291236;28;20605;-62
2022/11/07 20:19:04;;;;;;;19.30;9.55;;;;;;;9.53;69.26;99781.03;10280682;28;20635;-62
2022/11/07 20:24:08;;;;;;;23.15;9.68;;;;;;;9.61;69.06;99770.97;10277190;28;20069;-62
2022/11/07 20:29:09;;;;;;;18.80;8.63;;;;;;;9.60;68.96;99776.28;10296050;28;20057;-62
2022/11/07 20:34:14;;;;;;;20.75;9.13;;;;;;;9.61;69.04;99765.75;10275311;28;20427;-63
2022/11/07 20:39:16;;;;;;;20.55;9.75;;;;;;;9.65;69.01;99764.63;10279046;28;20129;-62
2022/11/07 20:44:17;;;;;;;18.15;10.15;;;;;;;9.65;68.75;99763.78;10286271;28;20053;-62
2022/11/07 20:49:20;;;;;;;15.02;7.32;;;;;;;9.55;68.56;99766.09;10280783;28;20046;-63
2022/11/07 20:54:21;;;;;;;19.98;7.78;;;;;;;9.51;68.54;99769.81;10284566;28;20054;-63
2022/11/07 20:59:23;;;;;;;20.67;8.25;;;;;;;9.51;68.86;99776.81;10318211;28;20499;-63
2022/11/07 21:04:25;;;;;;;12.45;6.43;;;;;;;9.47;69.00;99777.91;10288205;28;20586;-62
2022/11/07 21:09:26;;;;;;;16.27;7.10;;;;;;;9.43;68.73;99776.41;10278341;28;20573;-63
2022/11/07 21:14:28;;;;;;;19.33;7.55;;;;;;;9.40;68.90;99772.19;10282026;28;20573;-62
2022/11/07 21:19:30;;;;;;;17.23;8.32;;;;;;;9.29;69.22;99769.38;10283032;28;20491;-63
2022/11/07 21:24:32;;;;;;;19.42;7.70;;;;;;;9.15;68.96;99766.72;10278346;28;20054;-62
2022/11/07 21:29:33;;;;;;;16.27;7.90;;;;;;;9.06;69.37;99775.03;10279775;28;20444;-62
2022/11/07 21:34:38;;;;;;;21.13;9.13;;;;;;;9.07;68.87;99774.13;10278538;28;20062;-62
2022/11/07 21:39:41;;;;;;;20.42;9.85;;;;;;;9.04;69.07;99774.28;10284633;28;20047;-62
2022/11/07 21:44:42;;;;;;;15.60;8.52;;;;;;;8.96;69.11;99784.31;10281079;28;20815;-62
2022/11/07 21:49:47;;;;;;;15.00;10.20;;;;;;;8.89;69.31;99777.78;10272619;28;20051;-62
2022/11/07 21:54:49;;;;;;;20.02;11.57;;;;;;;8.78;69.25;99775.75;10285507;28;20407;-61
2022/11/07 21:59:51;;;;;;;23.35;12.80;;;;;;;8.78;69.10;99767.06;10278077;28;20298;-62
2022/11/07 22:04:52;;;;;;;18.27;10.77;;;;;;;8.61;69.63;99760.16;10272094;28;20130;-62
2022/11/07 22:09:54;;;;;;;24.10;14.60;;;;;;;8.45;69.46;99761.94;10276618;28;20077;-62
2022/11/07 22:14:56;;;;;;;25.15;13.70;;;;;;;8.32;69.54;99762.66;10266929;28;20121;-62
2022/11/07 22:19:57;;;;;;;20.40;10.27;;;;;;;8.32;69.72;99760.91;10280456;28;20045;-62
2022/11/07 22:24:59;;;;;;;21.73;12.77;;;;;;;8.37;69.70;99758.03;10283044;28;20063;-62
2022/11/07 22:30:01;;;;;;;16.58;9.82;;;;;;;8.36;69.69;99770.25;10274721;28;20110;-62
2022/11/07 22:35:03;;;;;;;21.58;12.02;;;;;;;8.40;69.79;99773.53;10277797;28;20055;-62
2022/11/07 22:40:10;;;;;;;26.20;15.90;;;;;;;8.56;69.72;99763.97;10274678;28;20222;-61
2022/11/07 22:45:14;;;;;;;22.10;14.32;;;;;;;8.78;69.57;99762.72;10277084;28;20537;-62
2022/11/07 22:50:16;;;;;;;28.00;17.63;;;;;;;8.91;69.28;99754.19;10271860;28;20047;-62
2022/11/07 22:55:18;;;;;;;18.92;12.63;;;;;;;8.82;69.08;99760.75;10281556;28;20418;-62
2022/11/07 23:00:19;;;;;;;21.17;12.02;;;;;;;8.65;69.36;99753.88;10290025;28;20053;-62
2022/11/07 23:05:23;;;;;;;19.60;10.85;;;;;;;8.54;69.23;99758.84;10271440;28;20054;-62
2022/11/07 23:10:24;;;;;;;18.70;10.45;;;;;;;8.52;69.14;99750.25;10287123;28;20057;-62
2022/11/07 23:15:26;;;;;;;17.27;8.63;;;;;;;8.44;69.39;99744.63;10277238;28;20057;-62
2022/11/07 23:25:48;;;;;;;20.33;10.15;;;;;;;8.28;69.48;99738.53;10279609;28;20380;-62
2022/11/07 23:30:51;;;;;;;22.40;11.70;;;;;;;8.20;69.38;99740.69;10276169;28;20047;-63
2022/11/07 23:35:57;;;;;;;37.72;15.35;;;;;;;8.13;69.60;99735.91;10308095;28;20054;-62
2022/11/07 23:41:01;;;;;;;41.53;9.70;;;;;;;8.02;69.39;99742.47;10290056;28;20059;-62
2022/11/07 23:51:24;;;;;;;15.85;10.40;;;;;;;7.61;69.52;99733.34;10291187;28;20057;-62